sensor_id;sensor_type;location;lat;lon;timestamp;P1;durP1;ratioP1;P2;durP2;ratioP2
3875;SDS011;1953;51.222;6.624;2023-05-08T00:00:36;27.00;;;22.47;;
3875;SDS011;1953;51.222;6.624;2023-05-08T00:05:19;24.80;;;19.80;;
3875;SDS011;1953;51.222;6.624;2023-05-08T00:11:31;21.70;;;18.80;;
3875;SDS011;1953;51.222;6.624;2023-05-08T00:16:14;24.10;;;18.63;;
3875;SDS011;1953;51.222;6.624;2023-05-08T00:20:56;24.20;;;19.77;;
3875;SDS011;1953;51.222;6.624;2023-05-08T00:25:39;25.60;;;21.40;;
3875;SDS011;1953;51.222;6.624;2023-05-08T00:30:23;27.67;;;20.93;;
3875;SDS011;1953;51.222;6.624;2023-05-08T00:35:06;25.80;;;21.10;;
3875;SDS011;1953;51.222;6.624;2023-05-08T00:39:49;26.23;;;21.83;;
3875;SDS011;1953;51.222;6.624;2023-05-08T00:44:31;24.33;;;21.20;;
3875;SDS011;1953;51.222;6.624;2023-05-08T00:49:15;32.77;;;21.47;;
3875;SDS011;1953;51.222;6.624;2023-05-08T00:53:58;27.80;;;20.40;;
3875;SDS011;1953;51.222;6.624;2023-05-08T00:58:41;30.00;;;24.00;;
3875;SDS011;1953;51.222;6.624;2023-05-08T01:03:25;32.63;;;23.40;;
3875;SDS011;1953;51.222;6.624;2023-05-08T01:08:11;29.10;;;22.60;;
3875;SDS011;1953;51.222;6.624;2023-05-08T01:12:55;30.17;;;23.60;;
3875;SDS011;1953;51.222;6.624;2023-05-08T01:17:49;27.07;;;22.77;;
3875;SDS011;1953;51.222;6.624;2023-05-08T01:22:52;34.13;;;23.87;;
3875;SDS011;1953;51.222;6.624;2023-05-08T01:28:07;28.57;;;23.00;;
3875;SDS011;1953;51.222;6.624;2023-05-08T01:33:01;32.00;;;25.30;;
3875;SDS011;1953;51.222;6.624;2023-05-08T01:37:52;28.60;;;22.70;;
3875;SDS011;1953;51.222;6.624;2023-05-08T01:42:45;31.20;;;25.10;;
3875;SDS011;1953;51.222;6.624;2023-05-08T01:47:31;33.10;;;25.60;;
3875;SDS011;1953;51.222;6.624;2023-05-08T01:52:20;33.20;;;25.90;;
3875;SDS011;1953;51.222;6.624;2023-05-08T01:57:14;30.87;;;24.00;;
3875;SDS011;1953;51.222;6.624;2023-05-08T02:01:58;35.33;;;26.87;;
3875;SDS011;1953;51.222;6.624;2023-05-08T02:06:43;32.27;;;24.80;;
3875;SDS011;1953;51.222;6.624;2023-05-08T02:11:27;35.17;;;27.43;;
3875;SDS011;1953;51.222;6.624;2023-05-08T02:16:11;30.70;;;25.10;;
3875;SDS011;1953;51.222;6.624;2023-05-08T02:20:55;31.20;;;24.40;;
3875;SDS011;1953;51.222;6.624;2023-05-08T02:25:38;39.83;;;27.50;;
3875;SDS011;1953;51.222;6.624;2023-05-08T02:30:24;38.10;;;28.23;;
3875;SDS011;1953;51.222;6.624;2023-05-08T02:35:07;34.70;;;25.20;;
3875;SDS011;1953;51.222;6.624;2023-05-08T02:39:51;37.93;;;26.70;;
3875;SDS011;1953;51.222;6.624;2023-05-08T02:44:37;38.10;;;27.50;;
3875;SDS011;1953;51.222;6.624;2023-05-08T02:49:24;35.80;;;25.67;;
3875;SDS011;1953;51.222;6.624;2023-05-08T02:54:13;39.53;;;26.87;;
3875;SDS011;1953;51.222;6.624;2023-05-08T02:59:13;38.60;;;27.80;;
3875;SDS011;1953;51.222;6.624;2023-05-08T03:04:00;35.50;;;26.33;;
3875;SDS011;1953;51.222;6.624;2023-05-08T03:08:47;36.50;;;26.77;;
3875;SDS011;1953;51.222;6.624;2023-05-08T03:13:31;39.30;;;27.67;;
3875;SDS011;1953;51.222;6.624;2023-05-08T03:18:18;36.07;;;27.87;;
3875;SDS011;1953;51.222;6.624;2023-05-08T03:23:03;37.90;;;27.27;;
3875;SDS011;1953;51.222;6.624;2023-05-08T03:27:48;40.90;;;27.00;;
3875;SDS011;1953;51.222;6.624;2023-05-08T03:32:32;35.83;;;27.47;;
3875;SDS011;1953;51.222;6.624;2023-05-08T03:37:16;35.83;;;24.53;;
3875;SDS011;1953;51.222;6.624;2023-05-08T03:41:59;36.67;;;26.60;;
3875;SDS011;1953;51.222;6.624;2023-05-08T03:46:43;38.43;;;26.83;;
3875;SDS011;1953;51.222;6.624;2023-05-08T03:51:28;36.07;;;25.23;;
3875;SDS011;1953;51.222;6.624;2023-05-08T03:56:12;37.73;;;26.37;;
3875;SDS011;1953;51.222;6.624;2023-05-08T04:00:58;37.67;;;24.17;;
3875;SDS011;1953;51.222;6.624;2023-05-08T04:05:49;33.80;;;23.03;;
3875;SDS011;1953;51.222;6.624;2023-05-08T04:10:38;34.90;;;21.87;;
3875;SDS011;1953;51.222;6.624;2023-05-08T04:15:27;28.63;;;21.60;;
3875;SDS011;1953;51.222;6.624;2023-05-08T04:20:12;24.20;;;18.37;;
3875;SDS011;1953;51.222;6.624;2023-05-08T04:25:00;26.00;;;17.63;;
3875;SDS011;1953;51.222;6.624;2023-05-08T04:29:47;25.10;;;16.70;;
3875;SDS011;1953;51.222;6.624;2023-05-08T04:34:30;19.53;;;15.47;;
3875;SDS011;1953;51.222;6.624;2023-05-08T04:39:13;19.50;;;15.47;;
3875;SDS011;1953;51.222;6.624;2023-05-08T04:43:57;18.97;;;15.00;;
3875;SDS011;1953;51.222;6.624;2023-05-08T04:52:50;23.07;;;15.57;;
3875;SDS011;1953;51.222;6.624;2023-05-08T04:57:32;17.57;;;14.27;;
3875;SDS011;1953;51.222;6.624;2023-05-08T05:02:16;21.43;;;15.47;;
3875;SDS011;1953;51.222;6.624;2023-05-08T05:06:59;19.90;;;14.90;;
3875;SDS011;1953;51.222;6.624;2023-05-08T05:11:42;21.40;;;15.63;;
3875;SDS011;1953;51.222;6.624;2023-05-08T05:16:25;18.83;;;15.10;;
3875;SDS011;1953;51.222;6.624;2023-05-08T05:21:09;18.75;;;15.75;;
3875;SDS011;1953;51.222;6.624;2023-05-08T05:25:52;20.20;;;14.83;;
3875;SDS011;1953;51.222;6.624;2023-05-08T05:30:34;17.70;;;15.80;;
3875;SDS011;1953;51.222;6.624;2023-05-08T05:35:17;20.87;;;16.30;;
3875;SDS011;1953;51.222;6.624;2023-05-08T05:40:01;25.13;;;16.80;;
3875;SDS011;1953;51.222;6.624;2023-05-08T05:44:43;22.27;;;16.47;;
3875;SDS011;1953;51.222;6.624;2023-05-08T05:49:26;21.60;;;16.77;;
3875;SDS011;1953;51.222;6.624;2023-05-08T05:54:08;22.23;;;17.63;;
3875;SDS011;1953;51.222;6.624;2023-05-08T05:58:52;23.00;;;16.77;;
3875;SDS011;1953;51.222;6.624;2023-05-08T06:03:35;21.40;;;17.40;;
3875;SDS011;1953;51.222;6.624;2023-05-08T06:08:17;25.60;;;17.60;;
3875;SDS011;1953;51.222;6.624;2023-05-08T06:13:00;25.27;;;18.23;;
3875;SDS011;1953;51.222;6.624;2023-05-08T06:17:44;25.43;;;17.37;;
3875;SDS011;1953;51.222;6.624;2023-05-08T06:22:26;22.53;;;16.43;;
3875;SDS011;1953;51.222;6.624;2023-05-08T06:27:09;27.67;;;17.67;;
3875;SDS011;1953;51.222;6.624;2023-05-08T06:31:52;20.50;;;15.60;;
3875;SDS011;1953;51.222;6.624;2023-05-08T06:36:36;23.67;;;16.80;;
3875;SDS011;1953;51.222;6.624;2023-05-08T06:41:19;22.67;;;15.90;;
3875;SDS011;1953;51.222;6.624;2023-05-08T06:46:02;22.60;;;17.80;;
3875;SDS011;1953;51.222;6.624;2023-05-08T06:50:45;20.90;;;16.97;;
3875;SDS011;1953;51.222;6.624;2023-05-08T06:55:29;21.70;;;15.77;;
3875;SDS011;1953;51.222;6.624;2023-05-08T07:00:12;26.63;;;18.83;;
3875;SDS011;1953;51.222;6.624;2023-05-08T07:04:55;21.07;;;17.00;;
3875;SDS011;1953;51.222;6.624;2023-05-08T07:09:37;23.70;;;19.17;;
3875;SDS011;1953;51.222;6.624;2023-05-08T07:14:21;29.80;;;21.93;;
3875;SDS011;1953;51.222;6.624;2023-05-08T07:19:04;51.83;;;27.00;;
3875;SDS011;1953;51.222;6.624;2023-05-08T07:23:46;39.60;;;27.73;;
3875;SDS011;1953;51.222;6.624;2023-05-08T07:28:31;34.93;;;26.80;;
3875;SDS011;1953;51.222;6.624;2023-05-08T07:33:15;38.40;;;29.83;;
3875;SDS011;1953;51.222;6.624;2023-05-08T07:37:58;33.50;;;27.47;;
3875;SDS011;1953;51.222;6.624;2023-05-08T07:42:41;36.30;;;28.20;;
3875;SDS011;1953;51.222;6.624;2023-05-08T07:47:24;35.47;;;28.00;;
3875;SDS011;1953;51.222;6.624;2023-05-08T07:52:10;32.43;;;26.67;;
3875;SDS011;1953;51.222;6.624;2023-05-08T07:56:52;31.33;;;26.73;;
3875;SDS011;1953;51.222;6.624;2023-05-08T08:01:35;31.53;;;27.37;;
3875;SDS011;1953;51.222;6.624;2023-05-08T08:06:17;27.97;;;23.00;;
3875;SDS011;1953;51.222;6.624;2023-05-08T08:11:01;31.00;;;23.27;;
3875;SDS011;1953;51.222;6.624;2023-05-08T08:15:44;26.07;;;22.27;;
3875;SDS011;1953;51.222;6.624;2023-05-08T08:20:26;23.80;;;19.70;;
3875;SDS011;1953;51.222;6.624;2023-05-08T08:25:09;19.63;;;17.63;;
3875;SDS011;1953;51.222;6.624;2023-05-08T08:29:53;21.48;;;19.17;;
3875;SDS011;1953;51.222;6.624;2023-05-08T08:34:35;22.43;;;20.10;;
3875;SDS011;1953;51.222;6.624;2023-05-08T08:39:18;21.27;;;18.97;;
3875;SDS011;1953;51.222;6.624;2023-05-08T08:44:00;24.63;;;21.83;;
3875;SDS011;1953;51.222;6.624;2023-05-08T08:48:45;25.97;;;23.17;;
3875;SDS011;1953;51.222;6.624;2023-05-08T08:53:29;30.13;;;25.20;;
3875;SDS011;1953;51.222;6.624;2023-05-08T08:58:19;27.87;;;24.40;;
3875;SDS011;1953;51.222;6.624;2023-05-08T09:03:05;36.30;;;27.50;;
3875;SDS011;1953;51.222;6.624;2023-05-08T09:07:49;35.77;;;28.77;;
3875;SDS011;1953;51.222;6.624;2023-05-08T09:12:35;34.90;;;26.70;;
3875;SDS011;1953;51.222;6.624;2023-05-08T09:17:19;32.83;;;25.57;;
3875;SDS011;1953;51.222;6.624;2023-05-08T09:22:02;27.53;;;24.53;;
3875;SDS011;1953;51.222;6.624;2023-05-08T09:26:47;25.50;;;22.20;;
3875;SDS011;1953;51.222;6.624;2023-05-08T09:31:33;26.03;;;20.50;;
3875;SDS011;1953;51.222;6.624;2023-05-08T09:36:23;25.13;;;22.23;;
3875;SDS011;1953;51.222;6.624;2023-05-08T09:41:09;23.43;;;21.00;;
3875;SDS011;1953;51.222;6.624;2023-05-08T09:45:54;21.67;;;19.43;;
3875;SDS011;1953;51.222;6.624;2023-05-08T09:50:37;20.60;;;18.50;;
3875;SDS011;1953;51.222;6.624;2023-05-08T09:55:19;17.63;;;15.80;;
3875;SDS011;1953;51.222;6.624;2023-05-08T10:00:03;18.47;;;16.33;;
3875;SDS011;1953;51.222;6.624;2023-05-08T10:04:48;17.60;;;15.80;;
3875;SDS011;1953;51.222;6.624;2023-05-08T10:09:31;15.67;;;14.07;;
3875;SDS011;1953;51.222;6.624;2023-05-08T10:14:14;16.40;;;14.67;;
3875;SDS011;1953;51.222;6.624;2023-05-08T10:18:58;13.53;;;12.03;;
3875;SDS011;1953;51.222;6.624;2023-05-08T10:23:46;18.40;;;12.03;;
3875;SDS011;1953;51.222;6.624;2023-05-08T10:28:32;10.93;;;9.90;;
3875;SDS011;1953;51.222;6.624;2023-05-08T10:33:20;10.47;;;9.37;;
3875;SDS011;1953;51.222;6.624;2023-05-08T10:38:10;8.57;;;7.77;;
3875;SDS011;1953;51.222;6.624;2023-05-08T10:42:55;9.53;;;8.60;;
3875;SDS011;1953;51.222;6.624;2023-05-08T10:47:41;7.70;;;7.10;;
3875;SDS011;1953;51.222;6.624;2023-05-08T10:52:31;8.63;;;7.20;;
3875;SDS011;1953;51.222;6.624;2023-05-08T10:57:17;9.60;;;8.70;;
3875;SDS011;1953;51.222;6.624;2023-05-08T11:02:03;10.13;;;8.23;;
3875;SDS011;1953;51.222;6.624;2023-05-08T11:06:48;8.40;;;7.60;;
3875;SDS011;1953;51.222;6.624;2023-05-08T11:11:33;9.50;;;8.70;;
3875;SDS011;1953;51.222;6.624;2023-05-08T11:21:36;10.03;;;8.30;;
3875;SDS011;1953;51.222;6.624;2023-05-08T11:26:39;9.10;;;8.33;;
3875;SDS011;1953;51.222;6.624;2023-05-08T11:30:55;9.67;;;8.70;;
3875;SDS011;1953;51.222;6.624;2023-05-08T11:35:42;8.43;;;7.63;;
3875;SDS011;1953;51.222;6.624;2023-05-08T11:45:36;6.60;;;6.10;;
3875;SDS011;1953;51.222;6.624;2023-05-08T11:50:21;6.80;;;6.20;;
3875;SDS011;1953;51.222;6.624;2023-05-08T11:55:06;6.90;;;5.87;;
3875;SDS011;1953;51.222;6.624;2023-05-08T11:59:51;8.17;;;7.33;;
3875;SDS011;1953;51.222;6.624;2023-05-08T12:04:41;6.77;;;6.07;;
3875;SDS011;1953;51.222;6.624;2023-05-08T12:12:36;8.10;;;7.30;;
3875;SDS011;1953;51.222;6.624;2023-05-08T12:17:18;7.67;;;6.90;;
3875;SDS011;1953;51.222;6.624;2023-05-08T12:22:01;8.97;;;6.30;;
3875;SDS011;1953;51.222;6.624;2023-05-08T12:26:44;6.77;;;6.27;;
3875;SDS011;1953;51.222;6.624;2023-05-08T12:31:28;6.77;;;5.60;;
3875;SDS011;1953;51.222;6.624;2023-05-08T12:36:11;5.77;;;5.27;;
3875;SDS011;1953;51.222;6.624;2023-05-08T12:40:55;5.67;;;5.17;;
3875;SDS011;1953;51.222;6.624;2023-05-08T12:45:38;5.57;;;5.10;;
3875;SDS011;1953;51.222;6.624;2023-05-08T12:50:23;7.40;;;6.50;;
3875;SDS011;1953;51.222;6.624;2023-05-08T12:55:05;6.60;;;5.90;;
3875;SDS011;1953;51.222;6.624;2023-05-08T13:00:02;6.60;;;6.00;;
3875;SDS011;1953;51.222;6.624;2023-05-08T13:04:45;7.50;;;6.90;;
3875;SDS011;1953;51.222;6.624;2023-05-08T13:09:29;6.57;;;6.00;;
3875;SDS011;1953;51.222;6.624;2023-05-08T13:14:12;6.45;;;5.95;;
3875;SDS011;1953;51.222;6.624;2023-05-08T13:18:54;6.70;;;6.07;;
3875;SDS011;1953;51.222;6.624;2023-05-08T13:23:37;5.72;;;5.30;;
3875;SDS011;1953;51.222;6.624;2023-05-08T13:28:21;6.70;;;6.20;;
3875;SDS011;1953;51.222;6.624;2023-05-08T13:33:03;6.90;;;6.30;;
3875;SDS011;1953;51.222;6.624;2023-05-08T13:37:46;7.07;;;6.38;;
3875;SDS011;1953;51.222;6.624;2023-05-08T13:42:29;6.88;;;6.38;;
3875;SDS011;1953;51.222;6.624;2023-05-08T13:47:13;6.90;;;6.40;;
3875;SDS011;1953;51.222;6.624;2023-05-08T13:51:55;6.57;;;5.90;;
3875;SDS011;1953;51.222;6.624;2023-05-08T13:56:38;5.40;;;5.00;;
3875;SDS011;1953;51.222;6.624;2023-05-08T14:01:20;6.15;;;4.65;;
3875;SDS011;1953;51.222;6.624;2023-05-08T14:06:05;4.15;;;3.90;;
3875;SDS011;1953;51.222;6.624;2023-05-08T14:10:47;3.78;;;3.50;;
3875;SDS011;1953;51.222;6.624;2023-05-08T14:15:30;4.00;;;3.55;;
3875;SDS011;1953;51.222;6.624;2023-05-08T14:20:14;3.63;;;3.42;;
3875;SDS011;1953;51.222;6.624;2023-05-08T14:24:58;3.78;;;3.33;;
3875;SDS011;1953;51.222;6.624;2023-05-08T14:29:41;3.63;;;3.33;;
3875;SDS011;1953;51.222;6.624;2023-05-08T14:34:23;4.03;;;3.45;;
3875;SDS011;1953;51.222;6.624;2023-05-08T14:39:06;4.00;;;3.80;;
3875;SDS011;1953;51.222;6.624;2023-05-08T14:43:49;4.53;;;4.20;;
3875;SDS011;1953;51.222;6.624;2023-05-08T14:48:32;4.28;;;3.95;;
3875;SDS011;1953;51.222;6.624;2023-05-08T14:53:14;3.97;;;3.78;;
3875;SDS011;1953;51.222;6.624;2023-05-08T14:57:57;4.95;;;4.40;;
3875;SDS011;1953;51.222;6.624;2023-05-08T15:02:41;6.65;;;4.50;;
3875;SDS011;1953;51.222;6.624;2023-05-08T15:07:23;4.90;;;4.60;;
3875;SDS011;1953;51.222;6.624;2023-05-08T15:12:06;4.93;;;4.53;;
3875;SDS011;1953;51.222;6.624;2023-05-08T15:16:48;4.63;;;4.10;;
3875;SDS011;1953;51.222;6.624;2023-05-08T15:21:32;4.93;;;4.53;;
3875;SDS011;1953;51.222;6.624;2023-05-08T15:26:15;4.70;;;4.40;;
3875;SDS011;1953;51.222;6.624;2023-05-08T15:30:57;5.33;;;4.93;;
3875;SDS011;1953;51.222;6.624;2023-05-08T15:35:40;5.07;;;4.67;;
3875;SDS011;1953;51.222;6.624;2023-05-08T15:40:24;4.53;;;4.23;;
3875;SDS011;1953;51.222;6.624;2023-05-08T15:45:07;5.17;;;4.77;;
3875;SDS011;1953;51.222;6.624;2023-05-08T15:49:50;4.70;;;4.40;;
3875;SDS011;1953;51.222;6.624;2023-05-08T15:54:33;5.87;;;5.27;;
3875;SDS011;1953;51.222;6.624;2023-05-08T15:59:17;5.40;;;4.90;;
3875;SDS011;1953;51.222;6.624;2023-05-08T16:03:59;5.57;;;5.07;;
3875;SDS011;1953;51.222;6.624;2023-05-08T16:08:42;6.83;;;6.23;;
3875;SDS011;1953;51.222;6.624;2023-05-08T16:13:24;7.00;;;6.40;;
3875;SDS011;1953;51.222;6.624;2023-05-08T16:18:08;7.20;;;6.60;;
3875;SDS011;1953;51.222;6.624;2023-05-08T16:22:51;8.33;;;7.53;;
3875;SDS011;1953;51.222;6.624;2023-05-08T16:27:34;9.07;;;8.20;;
3875;SDS011;1953;51.222;6.624;2023-05-08T16:32:17;9.87;;;9.03;;
3875;SDS011;1953;51.222;6.624;2023-05-08T16:37:01;11.77;;;10.63;;
3875;SDS011;1953;51.222;6.624;2023-05-08T16:41:43;10.47;;;9.37;;
3875;SDS011;1953;51.222;6.624;2023-05-08T16:46:26;11.27;;;10.17;;
3875;SDS011;1953;51.222;6.624;2023-05-08T16:51:08;13.47;;;12.17;;
3875;SDS011;1953;51.222;6.624;2023-05-08T16:55:52;13.60;;;12.33;;
3875;SDS011;1953;51.222;6.624;2023-05-08T17:00:35;12.70;;;11.43;;
3875;SDS011;1953;51.222;6.624;2023-05-08T17:05:17;13.70;;;12.40;;
3875;SDS011;1953;51.222;6.624;2023-05-08T17:10:00;13.33;;;11.93;;
3875;SDS011;1953;51.222;6.624;2023-05-08T17:14:44;15.10;;;12.60;;
3875;SDS011;1953;51.222;6.624;2023-05-08T17:19:26;14.50;;;13.10;;
3875;SDS011;1953;51.222;6.624;2023-05-08T17:24:09;14.83;;;13.33;;
3875;SDS011;1953;51.222;6.624;2023-05-08T17:28:52;12.60;;;11.40;;
3875;SDS011;1953;51.222;6.624;2023-05-08T17:33:35;14.70;;;13.20;;
3875;SDS011;1953;51.222;6.624;2023-05-08T17:38:18;14.90;;;13.00;;
3875;SDS011;1953;51.222;6.624;2023-05-08T17:43:01;13.93;;;12.63;;
3875;SDS011;1953;51.222;6.624;2023-05-08T17:47:43;15.30;;;12.73;;
3875;SDS011;1953;51.222;6.624;2023-05-08T17:52:27;17.60;;;13.10;;
3875;SDS011;1953;51.222;6.624;2023-05-08T17:57:09;18.33;;;13.10;;
3875;SDS011;1953;51.222;6.624;2023-05-08T18:01:52;14.57;;;12.87;;
3875;SDS011;1953;51.222;6.624;2023-05-08T18:06:35;15.60;;;13.30;;
3875;SDS011;1953;51.222;6.624;2023-05-08T18:11:19;15.47;;;13.93;;
3875;SDS011;1953;51.222;6.624;2023-05-08T18:16:03;18.23;;;16.33;;
3875;SDS011;1953;51.222;6.624;2023-05-08T18:20:45;14.57;;;13.17;;
3875;SDS011;1953;51.222;6.624;2023-05-08T18:25:27;14.93;;;12.70;;
3875;SDS011;1953;51.222;6.624;2023-05-08T18:30:12;14.13;;;12.43;;
3875;SDS011;1953;51.222;6.624;2023-05-08T18:34:54;13.53;;;12.23;;
3875;SDS011;1953;51.222;6.624;2023-05-08T18:39:37;18.53;;;13.83;;
3875;SDS011;1953;51.222;6.624;2023-05-08T18:44:19;14.50;;;13.00;;
3875;SDS011;1953;51.222;6.624;2023-05-08T18:49:03;15.27;;;13.77;;
3875;SDS011;1953;51.222;6.624;2023-05-08T18:53:45;13.77;;;12.40;;
3875;SDS011;1953;51.222;6.624;2023-05-08T18:58:28;15.23;;;12.90;;
3875;SDS011;1953;51.222;6.624;2023-05-08T19:03:10;15.07;;;13.57;;
3875;SDS011;1953;51.222;6.624;2023-05-08T19:07:54;14.60;;;13.20;;
3875;SDS011;1953;51.222;6.624;2023-05-08T19:12:36;15.47;;;13.87;;
3875;SDS011;1953;51.222;6.624;2023-05-08T19:17:19;15.73;;;13.63;;
3875;SDS011;1953;51.222;6.624;2023-05-08T19:22:01;15.87;;;13.33;;
3875;SDS011;1953;51.222;6.624;2023-05-08T19:26:45;17.47;;;15.57;;
3875;SDS011;1953;51.222;6.624;2023-05-08T19:31:28;16.03;;;14.43;;
3875;SDS011;1953;51.222;6.624;2023-05-08T19:36:10;15.70;;;13.43;;
3875;SDS011;1953;51.222;6.624;2023-05-08T19:40:52;16.17;;;13.30;;
3875;SDS011;1953;51.222;6.624;2023-05-08T19:45:36;15.30;;;13.33;;
3875;SDS011;1953;51.222;6.624;2023-05-08T19:50:19;14.67;;;13.10;;
3875;SDS011;1953;51.222;6.624;2023-05-08T19:55:01;15.07;;;12.90;;
3875;SDS011;1953;51.222;6.624;2023-05-08T19:59:44;15.07;;;13.57;;
3875;SDS011;1953;51.222;6.624;2023-05-08T20:04:27;12.67;;;11.40;;
3875;SDS011;1953;51.222;6.624;2023-05-08T20:09:10;13.90;;;11.60;;
3875;SDS011;1953;51.222;6.624;2023-05-08T20:13:52;13.20;;;11.57;;
3875;SDS011;1953;51.222;6.624;2023-05-08T20:18:35;13.87;;;11.60;;
3875;SDS011;1953;51.222;6.624;2023-05-08T20:23:19;12.37;;;10.60;;
3875;SDS011;1953;51.222;6.624;2023-05-08T20:28:01;12.00;;;10.60;;
3875;SDS011;1953;51.222;6.624;2023-05-08T20:32:44;13.40;;;11.13;;
3875;SDS011;1953;51.222;6.624;2023-05-08T20:37:26;12.87;;;11.57;;
3875;SDS011;1953;51.222;6.624;2023-05-08T20:42:11;13.23;;;11.70;;
3875;SDS011;1953;51.222;6.624;2023-05-08T20:46:53;14.10;;;12.60;;
3875;SDS011;1953;51.222;6.624;2023-05-08T20:51:35;13.73;;;11.90;;
3875;SDS011;1953;51.222;6.624;2023-05-08T20:56:18;15.50;;;13.00;;
3875;SDS011;1953;51.222;6.624;2023-05-08T21:01:02;13.37;;;11.97;;
3875;SDS011;1953;51.222;6.624;2023-05-08T21:05:45;13.67;;;12.20;;
3875;SDS011;1953;51.222;6.624;2023-05-08T21:10:27;13.97;;;12.47;;
3875;SDS011;1953;51.222;6.624;2023-05-08T21:15:11;13.87;;;12.00;;
3875;SDS011;1953;51.222;6.624;2023-05-08T21:19:54;23.83;;;14.10;;
3875;SDS011;1953;51.222;6.624;2023-05-08T21:24:38;14.17;;;12.10;;
3875;SDS011;1953;51.222;6.624;2023-05-08T21:29:23;14.73;;;13.07;;
3875;SDS011;1953;51.222;6.624;2023-05-08T21:34:06;14.30;;;12.57;;
3875;SDS011;1953;51.222;6.624;2023-05-08T21:38:50;14.80;;;13.20;;
3875;SDS011;1953;51.222;6.624;2023-05-08T21:43:32;14.60;;;12.20;;
3875;SDS011;1953;51.222;6.624;2023-05-08T21:48:16;12.80;;;11.40;;
3875;SDS011;1953;51.222;6.624;2023-05-08T21:52:58;15.20;;;13.17;;
3875;SDS011;1953;51.222;6.624;2023-05-08T21:57:42;15.30;;;13.13;;
3875;SDS011;1953;51.222;6.624;2023-05-08T22:02:25;17.63;;;13.50;;
3875;SDS011;1953;51.222;6.624;2023-05-08T22:07:07;16.20;;;12.60;;
3875;SDS011;1953;51.222;6.624;2023-05-08T22:11:50;13.70;;;12.30;;
3875;SDS011;1953;51.222;6.624;2023-05-08T22:16:34;18.50;;;13.00;;
3875;SDS011;1953;51.222;6.624;2023-05-08T22:21:16;15.03;;;13.27;;
3875;SDS011;1953;51.222;6.624;2023-05-08T22:25:58;17.57;;;13.97;;
3875;SDS011;1953;51.222;6.624;2023-05-08T22:30:41;15.70;;;14.00;;
3875;SDS011;1953;51.222;6.624;2023-05-08T22:35:25;16.80;;;13.47;;
3875;SDS011;1953;51.222;6.624;2023-05-08T22:40:08;15.47;;;13.77;;
3875;SDS011;1953;51.222;6.624;2023-05-08T22:44:51;16.67;;;13.67;;
3875;SDS011;1953;51.222;6.624;2023-05-08T22:49:33;15.00;;;13.40;;
3875;SDS011;1953;51.222;6.624;2023-05-08T22:54:18;16.53;;;13.97;;
3875;SDS011;1953;51.222;6.624;2023-05-08T22:59:00;17.50;;;14.33;;
3875;SDS011;1953;51.222;6.624;2023-05-08T23:03:43;15.90;;;14.20;;
3875;SDS011;1953;51.222;6.624;2023-05-08T23:08:25;17.33;;;14.27;;
3875;SDS011;1953;51.222;6.624;2023-05-08T23:13:09;20.23;;;15.40;;
3875;SDS011;1953;51.222;6.624;2023-05-08T23:17:51;17.00;;;15.20;;
3875;SDS011;1953;51.222;6.624;2023-05-08T23:22:34;18.70;;;14.43;;
3875;SDS011;1953;51.222;6.624;2023-05-08T23:27:16;17.30;;;14.40;;
3875;SDS011;1953;51.222;6.624;2023-05-08T23:32:00;20.13;;;15.90;;
3875;SDS011;1953;51.222;6.624;2023-05-08T23:36:42;21.03;;;15.90;;
3875;SDS011;1953;51.222;6.624;2023-05-08T23:41:25;19.30;;;16.17;;
3875;SDS011;1953;51.222;6.624;2023-05-08T23:50:12;18.10;;;16.20;;
3875;SDS011;1953;51.222;6.624;2023-05-08T23:54:54;19.40;;;16.43;;
3875;SDS011;1953;51.222;6.624;2023-05-08T23:59:37;19.30;;;17.17;;
